sensor_id;sensor_type;location;lat;lon;timestamp;pressure;altitude;pressure_sealevel;temperature;humidity
55291;BME280;41155;39.768;2.712;2023-04-07T00:00:30;101621.66;;;14.24;54.34
55291;BME280;41155;39.768;2.712;2023-04-07T00:02:55;101622.22;;;14.27;54.45
55291;BME280;41155;39.768;2.712;2023-04-07T00:05:21;101611.28;;;14.21;54.70
55291;BME280;41155;39.768;2.712;2023-04-07T00:07:47;101609.66;;;14.20;54.72
55291;BME280;41155;39.768;2.712;2023-04-07T00:10:13;101618.34;;;14.22;54.68
55291;BME280;41155;39.768;2.712;2023-04-07T00:12:38;101568.03;;;13.93;54.48
55291;BME280;41155;39.768;2.712;2023-04-07T00:15:04;101582.22;;;14.00;54.74
55291;BME280;41155;39.768;2.712;2023-04-07T00:17:30;101565.31;;;13.93;54.84
55291;BME280;41155;39.768;2.712;2023-04-07T00:19:55;101607.13;;;14.14;54.83
55291;BME280;41155;39.768;2.712;2023-04-07T00:22:21;101596.97;;;14.04;54.80
55291;BME280;41155;39.768;2.712;2023-04-07T00:24:46;101612.84;;;14.17;55.07
55291;BME280;41155;39.768;2.712;2023-04-07T00:27:12;101613.69;;;14.18;54.95
55291;BME280;41155;39.768;2.712;2023-04-07T00:29:37;101583.56;;;13.97;54.89
55291;BME280;41155;39.768;2.712;2023-04-07T00:32:02;101608.13;;;14.08;54.81
55291;BME280;41155;39.768;2.712;2023-04-07T00:34:28;101589.91;;;14.03;55.00
55291;BME280;41155;39.768;2.712;2023-04-07T00:36:53;101572.06;;;13.90;55.06
55291;BME280;41155;39.768;2.712;2023-04-07T00:39:20;101606.72;;;14.05;54.93
55291;BME280;41155;39.768;2.712;2023-04-07T00:41:45;101597.53;;;14.06;54.99
55291;BME280;41155;39.768;2.712;2023-04-07T00:44:11;101596.97;;;14.04;54.98
55291;BME280;41155;39.768;2.712;2023-04-07T00:46:37;101604.28;;;14.04;55.16
55291;BME280;41155;39.768;2.712;2023-04-07T00:49:03;101603.72;;;14.01;55.07
55291;BME280;41155;39.768;2.712;2023-04-07T00:51:28;101582.03;;;13.85;55.19
55291;BME280;41155;39.768;2.712;2023-04-07T00:53:55;101604.44;;;13.97;55.05
55291;BME280;41155;39.768;2.712;2023-04-07T00:56:21;101614.75;;;13.95;55.28
55291;BME280;41155;39.768;2.712;2023-04-07T00:58:46;101598.91;;;13.87;55.40
55291;BME280;41155;39.768;2.712;2023-04-07T01:01:17;101593.41;;;13.82;55.56
55291;BME280;41155;39.768;2.712;2023-04-07T01:03:46;101596.69;;;13.84;55.85
55291;BME280;41155;39.768;2.712;2023-04-07T01:06:14;101608.06;;;13.81;55.87
55291;BME280;41155;39.768;2.712;2023-04-07T01:08:50;101574.38;;;13.60;55.98
55291;BME280;41155;39.768;2.712;2023-04-07T01:11:29;101579.63;;;13.66;56.12
55291;BME280;41155;39.768;2.712;2023-04-07T01:13:56;101594.09;;;13.72;56.22
55291;BME280;41155;39.768;2.712;2023-04-07T01:16:27;101593.28;;;13.71;56.29
55291;BME280;41155;39.768;2.712;2023-04-07T01:19:11;101597.88;;;13.71;56.25
55291;BME280;41155;39.768;2.712;2023-04-07T01:21:39;101593.53;;;13.70;56.22
55291;BME280;41155;39.768;2.712;2023-04-07T01:24:33;101589.41;;;13.67;56.42
55291;BME280;41155;39.768;2.712;2023-04-07T01:27:41;101589.09;;;13.64;56.40
55291;BME280;41155;39.768;2.712;2023-04-07T01:30:11;101582.19;;;13.56;56.41
55291;BME280;41155;39.768;2.712;2023-04-07T01:32:38;101572.25;;;13.45;56.56
55291;BME280;41155;39.768;2.712;2023-04-07T01:35:06;101582.13;;;13.51;56.85
55291;BME280;41155;39.768;2.712;2023-04-07T01:37:35;101450.19;;;12.67;56.94
55291;BME280;41155;39.768;2.712;2023-04-07T01:40:03;101580.75;;;13.48;56.76
55291;BME280;41155;39.768;2.712;2023-04-07T01:42:30;101587.31;;;13.52;56.85
55291;BME280;41155;39.768;2.712;2023-04-07T01:44:57;101586.50;;;13.52;56.71
55291;BME280;41155;39.768;2.712;2023-04-07T01:47:23;101559.38;;;13.35;56.77
55291;BME280;41155;39.768;2.712;2023-04-07T01:49:52;101558.31;;;13.36;56.58
55291;BME280;41155;39.768;2.712;2023-04-07T01:52:19;101573.66;;;13.47;56.81
55291;BME280;41155;39.768;2.712;2023-04-07T01:54:45;101566.84;;;13.45;57.01
55291;BME280;41155;39.768;2.712;2023-04-07T01:57:11;101571.72;;;13.43;57.02
55291;BME280;41155;39.768;2.712;2023-04-07T01:59:36;101574.44;;;13.43;57.11
55291;BME280;41155;39.768;2.712;2023-04-07T02:02:02;101542.38;;;13.23;57.12
55291;BME280;41155;39.768;2.712;2023-04-07T02:04:34;101564.50;;;13.31;57.27
55291;BME280;41155;39.768;2.712;2023-04-07T02:07:14;101571.63;;;13.38;57.23
55291;BME280;41155;39.768;2.712;2023-04-07T02:09:42;101568.91;;;13.38;56.83
55291;BME280;41155;39.768;2.712;2023-04-07T02:12:10;101564.31;;;13.38;56.88
55291;BME280;41155;39.768;2.712;2023-04-07T02:14:37;101561.03;;;13.36;56.93
55291;BME280;41155;39.768;2.712;2023-04-07T02:17:03;101559.31;;;13.30;57.45
55291;BME280;41155;39.768;2.712;2023-04-07T02:19:30;101550.63;;;13.28;57.31
55291;BME280;41155;39.768;2.712;2023-04-07T02:21:58;101538.16;;;13.15;57.48
55291;BME280;41155;39.768;2.712;2023-04-07T02:24:25;101543.00;;;13.13;57.52
55291;BME280;41155;39.768;2.712;2023-04-07T02:26:50;101534.81;;;13.08;57.88
55291;BME280;41155;39.768;2.712;2023-04-07T02:29:16;101543.00;;;13.13;57.79
55291;BME280;41155;39.768;2.712;2023-04-07T02:31:41;101557.25;;;13.20;57.54
55291;BME280;41155;39.768;2.712;2023-04-07T02:34:07;101552.31;;;13.17;57.45
55291;BME280;41155;39.768;2.712;2023-04-07T02:36:32;101533.97;;;13.07;57.15
55291;BME280;41155;39.768;2.712;2023-04-07T02:38:58;101560.13;;;13.14;57.56
55291;BME280;41155;39.768;2.712;2023-04-07T02:41:23;101534.84;;;12.91;57.55
55291;BME280;41155;39.768;2.712;2023-04-07T02:43:49;101532.44;;;12.95;57.67
55291;BME280;41155;39.768;2.712;2023-04-07T02:46:14;101528.59;;;12.91;57.87
55291;BME280;41155;39.768;2.712;2023-04-07T02:48:39;101536.88;;;13.01;58.06
55291;BME280;41155;39.768;2.712;2023-04-07T02:51:05;101515.44;;;12.82;58.04
55291;BME280;41155;39.768;2.712;2023-04-07T02:53:30;101508.63;;;12.80;58.05
55291;BME280;41155;39.768;2.712;2023-04-07T02:55:56;101511.34;;;12.80;58.50
55291;BME280;41155;39.768;2.712;2023-04-07T02:58:21;101543.06;;;12.96;58.38
55291;BME280;41155;39.768;2.712;2023-04-07T03:00:47;101536.22;;;12.94;58.21
55291;BME280;41155;39.768;2.712;2023-04-07T03:03:13;101500.09;;;12.71;58.19
55291;BME280;41155;39.768;2.712;2023-04-07T03:05:39;101536.78;;;12.96;58.06
55291;BME280;41155;39.768;2.712;2023-04-07T03:08:04;101532.13;;;12.91;57.96
55291;BME280;41155;39.768;2.712;2023-04-07T03:10:30;101524.41;;;12.83;58.21
55291;BME280;41155;39.768;2.712;2023-04-07T03:12:57;101521.91;;;12.81;58.27
55291;BME280;41155;39.768;2.712;2023-04-07T03:15:22;101531.22;;;12.85;58.37
55291;BME280;41155;39.768;2.712;2023-04-07T03:17:48;101526.03;;;12.84;58.51
55291;BME280;41155;39.768;2.712;2023-04-07T03:20:13;101528.50;;;12.85;58.41
55291;BME280;41155;39.768;2.712;2023-04-07T03:22:39;101503.88;;;12.70;58.65
55291;BME280;41155;39.768;2.712;2023-04-07T03:25:05;101523.81;;;12.81;58.88
55291;BME280;41155;39.768;2.712;2023-04-07T03:27:31;101516.44;;;12.76;58.85
55291;BME280;41155;39.768;2.712;2023-04-07T03:29:56;101472.06;;;12.49;58.53
55291;BME280;41155;39.768;2.712;2023-04-07T03:32:22;101501.41;;;12.69;58.66
55291;BME280;41155;39.768;2.712;2023-04-07T03:34:47;101529.50;;;12.79;58.57
55291;BME280;41155;39.768;2.712;2023-04-07T03:37:13;101470.66;;;12.46;58.25
55291;BME280;41155;39.768;2.712;2023-04-07T03:39:38;101499.34;;;12.59;58.28
55291;BME280;41155;39.768;2.712;2023-04-07T03:42:05;101511.75;;;12.72;58.57
55291;BME280;41155;39.768;2.712;2023-04-07T03:44:30;101504.09;;;12.69;58.34
55291;BME280;41155;39.768;2.712;2023-04-07T03:46:57;101500.00;;;12.66;58.80
55291;BME280;41155;39.768;2.712;2023-04-07T03:49:22;101510.84;;;12.66;58.78
55291;BME280;41155;39.768;2.712;2023-04-07T03:51:48;101492.03;;;12.59;59.07
55291;BME280;41155;39.768;2.712;2023-04-07T03:54:13;101471.50;;;12.47;58.95
55291;BME280;41155;39.768;2.712;2023-04-07T03:56:39;101482.59;;;12.45;58.99
55291;BME280;41155;39.768;2.712;2023-04-07T03:59:05;101460.41;;;12.31;59.04
55291;BME280;41155;39.768;2.712;2023-04-07T04:01:30;101503.09;;;12.58;58.82
55291;BME280;41155;39.768;2.712;2023-04-07T04:03:56;101458.78;;;12.30;58.70
55291;BME280;41155;39.768;2.712;2023-04-07T04:06:21;101473.28;;;12.41;58.83
55291;BME280;41155;39.768;2.712;2023-04-07T04:08:47;101488.22;;;12.43;58.82
55291;BME280;41155;39.768;2.712;2023-04-07T04:11:12;101473.72;;;12.33;58.50
55291;BME280;41155;39.768;2.712;2023-04-07T04:13:38;101510.31;;;12.52;58.60
55291;BME280;41155;39.768;2.712;2023-04-07T04:16:04;101494.50;;;12.44;58.52
55291;BME280;41155;39.768;2.712;2023-04-07T04:18:29;101509.50;;;12.52;58.67
55291;BME280;41155;39.768;2.712;2023-04-07T04:20:55;101513.28;;;12.51;58.48
55291;BME280;41155;39.768;2.712;2023-04-07T04:23:20;101510.00;;;12.49;58.50
55291;BME280;41155;39.768;2.712;2023-04-07T04:25:45;101488.78;;;12.29;58.79
55291;BME280;41155;39.768;2.712;2023-04-07T04:28:11;101512.06;;;12.41;58.91
55291;BME280;41155;39.768;2.712;2023-04-07T04:30:36;101496.00;;;12.23;58.67
55291;BME280;41155;39.768;2.712;2023-04-07T04:33:02;101497.88;;;12.23;58.99
55291;BME280;41155;39.768;2.712;2023-04-07T04:35:27;101522.19;;;12.34;58.85
55291;BME280;41155;39.768;2.712;2023-04-07T04:37:53;101516.44;;;12.31;58.68
55291;BME280;41155;39.768;2.712;2023-04-07T04:40:19;101531.88;;;12.30;58.76
55291;BME280;41155;39.768;2.712;2023-04-07T04:42:44;101486.84;;;11.95;59.42
55291;BME280;41155;39.768;2.712;2023-04-07T04:45:10;101532.16;;;12.17;59.74
55291;BME280;41155;39.768;2.712;2023-04-07T04:47:36;101507.63;;;12.07;59.89
55291;BME280;41155;39.768;2.712;2023-04-07T04:50:04;101528.06;;;12.14;59.86
55291;BME280;41155;39.768;2.712;2023-04-07T04:52:30;101529.22;;;12.18;60.03
55291;BME280;41155;39.768;2.712;2023-04-07T04:54:56;101503.19;;;12.01;60.05
55291;BME280;41155;39.768;2.712;2023-04-07T04:57:21;101537.91;;;12.20;60.18
55291;BME280;41155;39.768;2.712;2023-04-07T04:59:46;101532.28;;;12.22;60.26
55291;BME280;41155;39.768;2.712;2023-04-07T05:02:12;101533.91;;;12.23;59.84
55291;BME280;41155;39.768;2.712;2023-04-07T05:04:37;101530.06;;;12.19;59.67
55291;BME280;41155;39.768;2.712;2023-04-07T05:07:03;101525.59;;;12.13;59.57
55291;BME280;41155;39.768;2.712;2023-04-07T05:09:31;101518.69;;;12.05;59.45
55291;BME280;41155;39.768;2.712;2023-04-07T05:11:57;101537.34;;;12.18;59.58
55291;BME280;41155;39.768;2.712;2023-04-07T05:14:22;101509.16;;;12.03;59.59
55291;BME280;41155;39.768;2.712;2023-04-07T05:16:48;101476.03;;;11.84;59.66
55291;BME280;41155;39.768;2.712;2023-04-07T05:19:13;101528.31;;;12.13;60.11
55291;BME280;41155;39.768;2.712;2023-04-07T05:21:39;101519.97;;;12.03;60.31
55291;BME280;41155;39.768;2.712;2023-04-07T05:24:05;101528.81;;;12.10;60.51
55291;BME280;41155;39.768;2.712;2023-04-07T05:26:30;101531.41;;;12.05;60.54
55291;BME280;41155;39.768;2.712;2023-04-07T05:28:56;101537.97;;;12.09;60.54
55291;BME280;41155;39.768;2.712;2023-04-07T05:31:21;101535.75;;;12.06;60.50
55291;BME280;41155;39.768;2.712;2023-04-07T05:33:47;101521.69;;;11.92;60.44
55291;BME280;41155;39.768;2.712;2023-04-07T05:36:12;101511.22;;;11.84;60.48
55291;BME280;41155;39.768;2.712;2023-04-07T05:38:38;101538.13;;;12.02;60.49
55291;BME280;41155;39.768;2.712;2023-04-07T05:41:03;101520.72;;;11.98;60.25
55291;BME280;41155;39.768;2.712;2023-04-07T05:43:28;101538.44;;;12.06;59.99
55291;BME280;41155;39.768;2.712;2023-04-07T05:45:54;101533.50;;;12.03;59.81
55291;BME280;41155;39.768;2.712;2023-04-07T05:48:19;101536.00;;;12.04;59.68
55291;BME280;41155;39.768;2.712;2023-04-07T05:50:45;101533.03;;;12.06;59.48
55291;BME280;41155;39.768;2.712;2023-04-07T05:53:10;101483.34;;;11.71;59.75
55291;BME280;41155;39.768;2.712;2023-04-07T05:55:36;101542.44;;;12.03;59.87
55291;BME280;41155;39.768;2.712;2023-04-07T05:58:01;101530.38;;;11.94;59.83
55291;BME280;41155;39.768;2.712;2023-04-07T06:00:27;101539.41;;;11.99;59.80
55291;BME280;41155;39.768;2.712;2023-04-07T06:02:52;101537.78;;;11.98;59.83
55291;BME280;41155;39.768;2.712;2023-04-07T06:05:18;101545.41;;;12.02;59.57
55291;BME280;41155;39.768;2.712;2023-04-07T06:07:43;101550.00;;;12.01;59.54
55291;BME280;41155;39.768;2.712;2023-04-07T06:10:09;101554.84;;;11.99;59.53
55291;BME280;41155;39.768;2.712;2023-04-07T06:12:35;101551.06;;;12.00;59.68
55291;BME280;41155;39.768;2.712;2023-04-07T06:15:00;101531.44;;;11.81;59.83
55291;BME280;41155;39.768;2.712;2023-04-07T06:17:26;101514.50;;;11.74;60.09
55291;BME280;41155;39.768;2.712;2023-04-07T06:19:51;101534.75;;;11.83;60.35
55291;BME280;41155;39.768;2.712;2023-04-07T06:22:16;101527.81;;;11.75;60.98
55291;BME280;41155;39.768;2.712;2023-04-07T06:24:42;101534.84;;;11.88;60.48
55291;BME280;41155;39.768;2.712;2023-04-07T06:27:07;101560.25;;;11.99;60.63
55291;BME280;41155;39.768;2.712;2023-04-07T06:29:33;101553.19;;;11.98;60.49
55291;BME280;41155;39.768;2.712;2023-04-07T06:31:59;101559.16;;;12.00;60.82
55291;BME280;41155;39.768;2.712;2023-04-07T06:34:25;101557.66;;;12.04;60.82
55291;BME280;41155;39.768;2.712;2023-04-07T06:36:50;101561.75;;;12.07;60.99
55291;BME280;41155;39.768;2.712;2023-04-07T06:39:16;101555.88;;;12.10;60.87
55291;BME280;41155;39.768;2.712;2023-04-07T06:41:42;101546.44;;;12.12;60.66
55291;BME280;41155;39.768;2.712;2023-04-07T06:44:10;101549.00;;;12.19;60.50
55291;BME280;41155;39.768;2.712;2023-04-07T06:46:36;101532.53;;;12.09;60.60
55291;BME280;41155;39.768;2.712;2023-04-07T06:49:01;101557.78;;;12.26;60.42
55291;BME280;41155;39.768;2.712;2023-04-07T06:51:28;101507.75;;;12.00;60.29
55291;BME280;41155;39.768;2.712;2023-04-07T06:53:53;101539.41;;;12.28;60.52
55291;BME280;41155;39.768;2.712;2023-04-07T06:56:19;101527.44;;;12.24;60.38
55291;BME280;41155;39.768;2.712;2023-04-07T06:58:45;101549.22;;;12.46;60.28
55291;BME280;41155;39.768;2.712;2023-04-07T07:01:11;101545.97;;;12.44;59.94
55291;BME280;41155;39.768;2.712;2023-04-07T07:03:36;101552.13;;;12.56;59.84
55291;BME280;41155;39.768;2.712;2023-04-07T07:06:02;101519.34;;;12.41;59.54
55291;BME280;41155;39.768;2.712;2023-04-07T07:08:28;101552.88;;;12.69;59.09
55291;BME280;41155;39.768;2.712;2023-04-07T07:10:54;101546.16;;;12.71;58.95
55291;BME280;41155;39.768;2.712;2023-04-07T07:13:22;101553.38;;;12.82;58.87
55291;BME280;41155;39.768;2.712;2023-04-07T07:15:48;101540.88;;;12.81;59.01
55291;BME280;41155;39.768;2.712;2023-04-07T07:18:14;101521.84;;;12.76;59.33
55291;BME280;41155;39.768;2.712;2023-04-07T07:20:40;101554.84;;;13.07;59.56
55291;BME280;41155;39.768;2.712;2023-04-07T07:23:06;101540.25;;;13.08;59.44
55291;BME280;41155;39.768;2.712;2023-04-07T07:25:31;101553.44;;;13.21;59.38
55291;BME280;41155;39.768;2.712;2023-04-07T07:27:57;101552.25;;;13.29;59.15
55291;BME280;41155;39.768;2.712;2023-04-07T07:30:23;101536.94;;;13.23;59.16
55291;BME280;41155;39.768;2.712;2023-04-07T07:32:49;101546.13;;;13.39;58.89
55291;BME280;41155;39.768;2.712;2023-04-07T07:35:15;101540.78;;;13.44;58.60
55291;BME280;41155;39.768;2.712;2023-04-07T07:37:41;101546.91;;;13.56;58.27
55291;BME280;41155;39.768;2.712;2023-04-07T07:40:08;101550.59;;;13.67;57.81
55291;BME280;41155;39.768;2.712;2023-04-07T07:42:34;101539.50;;;13.68;57.49
55291;BME280;41155;39.768;2.712;2023-04-07T07:44:59;101517.78;;;13.68;57.26
55291;BME280;41155;39.768;2.712;2023-04-07T07:47:25;101495.44;;;13.61;56.95
55291;BME280;41155;39.768;2.712;2023-04-07T07:49:50;101547.44;;;13.97;56.85
55291;BME280;41155;39.768;2.712;2023-04-07T07:52:16;101535.25;;;13.99;54.94
55291;BME280;41155;39.768;2.712;2023-04-07T07:54:41;101526.59;;;14.02;53.29
55291;BME280;41155;39.768;2.712;2023-04-07T07:57:07;101540.59;;;14.16;51.87
55291;BME280;41155;39.768;2.712;2023-04-07T07:59:33;101521.03;;;14.14;50.87
55291;BME280;41155;39.768;2.712;2023-04-07T08:01:58;101545.66;;;14.30;49.76
55291;BME280;41155;39.768;2.712;2023-04-07T08:04:24;101540.81;;;14.37;49.40
55291;BME280;41155;39.768;2.712;2023-04-07T08:06:50;101537.66;;;14.45;48.35
55291;BME280;41155;39.768;2.712;2023-04-07T08:09:17;101531.19;;;14.51;47.28
55291;BME280;41155;39.768;2.712;2023-04-07T08:11:43;101529.66;;;14.60;47.50
55291;BME280;41155;39.768;2.712;2023-04-07T08:14:08;101460.56;;;14.24;47.96
55291;BME280;41155;39.768;2.712;2023-04-07T08:16:34;101532.81;;;14.79;47.39
55291;BME280;41155;39.768;2.712;2023-04-07T08:18:59;101529.88;;;14.86;48.08
55291;BME280;41155;39.768;2.712;2023-04-07T08:21:25;101531.88;;;14.96;47.37
55291;BME280;41155;39.768;2.712;2023-04-07T08:23:52;101519.34;;;14.95;47.09
55291;BME280;41155;39.768;2.712;2023-04-07T08:26:21;101507.94;;;14.98;46.98
55291;BME280;41155;39.768;2.712;2023-04-07T08:28:48;101535.59;;;15.22;46.96
55291;BME280;41155;39.768;2.712;2023-04-07T08:31:16;101534.53;;;15.28;44.54
55291;BME280;41155;39.768;2.712;2023-04-07T08:33:41;101533.78;;;15.37;42.54
55291;BME280;41155;39.768;2.712;2023-04-07T08:36:07;101531.91;;;15.43;41.50
55291;BME280;41155;39.768;2.712;2023-04-07T08:38:32;101530.31;;;15.52;41.65
55291;BME280;41155;39.768;2.712;2023-04-07T08:41:06;101533.34;;;15.61;41.54
55291;BME280;41155;39.768;2.712;2023-04-07T08:43:34;101493.81;;;15.43;39.57
55291;BME280;41155;39.768;2.712;2023-04-07T08:46:01;101538.63;;;15.78;38.50
55291;BME280;41155;39.768;2.712;2023-04-07T08:48:29;101537.03;;;15.87;37.97
55291;BME280;41155;39.768;2.712;2023-04-07T08:50:59;101530.50;;;15.93;36.25
55291;BME280;41155;39.768;2.712;2023-04-07T08:53:48;101512.28;;;15.89;35.26
55291;BME280;41155;39.768;2.712;2023-04-07T08:56:16;101528.41;;;16.16;35.24
55291;BME280;41155;39.768;2.712;2023-04-07T08:58:43;101503.63;;;16.17;36.83
55291;BME280;41155;39.768;2.712;2023-04-07T09:01:09;101530.34;;;16.46;38.96
55291;BME280;41155;39.768;2.712;2023-04-07T09:03:35;101490.56;;;16.30;40.77
55291;BME280;41155;39.768;2.712;2023-04-07T09:06:01;101519.50;;;16.61;39.08
55291;BME280;41155;39.768;2.712;2023-04-07T09:08:27;101503.66;;;16.63;34.15
55291;BME280;41155;39.768;2.712;2023-04-07T09:10:53;101532.06;;;16.88;35.16
55291;BME280;41155;39.768;2.712;2023-04-07T09:13:20;101525.78;;;17.03;34.68
55291;BME280;41155;39.768;2.712;2023-04-07T09:15:46;101527.41;;;17.14;33.72
55291;BME280;41155;39.768;2.712;2023-04-07T09:18:12;101505.56;;;17.14;34.00
55291;BME280;41155;39.768;2.712;2023-04-07T09:23:31;101521.00;;;17.59;33.23
55291;BME280;41155;39.768;2.712;2023-04-07T09:25:58;101522.56;;;17.76;36.64
55291;BME280;41155;39.768;2.712;2023-04-07T09:28:43;101518.22;;;17.85;38.92
55291;BME280;41155;39.768;2.712;2023-04-07T09:31:08;101498.25;;;17.84;38.76
55291;BME280;41155;39.768;2.712;2023-04-07T09:33:34;101499.56;;;17.92;38.61
55291;BME280;41155;39.768;2.712;2023-04-07T09:36:01;101509.34;;;18.09;39.14
55291;BME280;41155;39.768;2.712;2023-04-07T09:38:40;101513.31;;;18.26;38.14
55291;BME280;41155;39.768;2.712;2023-04-07T09:41:14;101512.72;;;18.35;37.70
55291;BME280;41155;39.768;2.712;2023-04-07T09:43:42;101515.38;;;18.45;38.03
55291;BME280;41155;39.768;2.712;2023-04-07T09:46:18;101518.88;;;18.50;38.14
55291;BME280;41155;39.768;2.712;2023-04-07T09:48:45;101521.56;;;18.61;38.42
55291;BME280;41155;39.768;2.712;2023-04-07T09:51:16;101523.91;;;18.72;38.66
55291;BME280;41155;39.768;2.712;2023-04-07T09:53:46;101524.94;;;18.87;38.72
55291;BME280;41155;39.768;2.712;2023-04-07T09:56:14;101503.63;;;18.84;38.98
55291;BME280;41155;39.768;2.712;2023-04-07T09:58:45;101523.09;;;19.06;38.84
55291;BME280;41155;39.768;2.712;2023-04-07T10:01:12;101527.31;;;19.23;38.52
55291;BME280;41155;39.768;2.712;2023-04-07T10:03:38;101494.50;;;19.17;38.63
55291;BME280;41155;39.768;2.712;2023-04-07T10:06:04;101507.78;;;19.29;38.95
55291;BME280;41155;39.768;2.712;2023-04-07T10:08:35;101522.09;;;19.50;39.00
55291;BME280;41155;39.768;2.712;2023-04-07T10:11:01;101517.88;;;19.58;39.35
55291;BME280;41155;39.768;2.712;2023-04-07T10:13:32;101515.88;;;19.69;39.43
55291;BME280;41155;39.768;2.712;2023-04-07T10:15:58;101520.91;;;19.80;39.68
55291;BME280;41155;39.768;2.712;2023-04-07T10:18:31;101508.34;;;19.79;39.89
55291;BME280;41155;39.768;2.712;2023-04-07T10:21:02;101464.34;;;19.71;39.51
55291;BME280;41155;39.768;2.712;2023-04-07T10:26:25;101508.44;;;20.12;39.56
55291;BME280;41155;39.768;2.712;2023-04-07T10:29:03;101509.72;;;20.20;39.64
55291;BME280;41155;39.768;2.712;2023-04-07T10:31:31;101497.97;;;20.33;39.40
55291;BME280;41155;39.768;2.712;2023-04-07T10:33:57;101493.44;;;20.42;39.31
55291;BME280;41155;39.768;2.712;2023-04-07T10:36:22;101494.94;;;20.53;39.48
55291;BME280;41155;39.768;2.712;2023-04-07T10:41:38;101509.22;;;20.69;39.86
55291;BME280;41155;39.768;2.712;2023-04-07T10:44:08;101498.19;;;20.56;40.42
55291;BME280;41155;39.768;2.712;2023-04-07T10:49:13;101471.94;;;20.49;41.32
55291;BME280;41155;39.768;2.712;2023-04-07T10:51:39;101510.09;;;20.84;41.56
55291;BME280;41155;39.768;2.712;2023-04-07T10:59:32;101500.25;;;20.96;41.08
55291;BME280;41155;39.768;2.712;2023-04-07T11:07:06;101504.09;;;21.42;40.51
55291;BME280;41155;39.768;2.712;2023-04-07T11:09:31;101502.97;;;21.57;40.30
55291;BME280;41155;39.768;2.712;2023-04-07T11:11:57;101487.91;;;21.54;40.40
55291;BME280;41155;39.768;2.712;2023-04-07T11:16:51;101496.69;;;21.93;38.55
55291;BME280;41155;39.768;2.712;2023-04-07T11:19:18;101487.72;;;22.01;38.03
55291;BME280;41155;39.768;2.712;2023-04-07T11:21:43;101487.31;;;22.07;38.04
55291;BME280;41155;39.768;2.712;2023-04-07T11:24:09;101501.31;;;22.33;37.96
55291;BME280;41155;39.768;2.712;2023-04-07T11:26:39;101487.34;;;22.30;37.64
55291;BME280;41155;39.768;2.712;2023-04-07T11:29:05;101499.09;;;22.44;37.97
55291;BME280;41155;39.768;2.712;2023-04-07T11:31:32;101499.78;;;22.50;37.44
55291;BME280;41155;39.768;2.712;2023-04-07T11:36:29;101490.38;;;22.73;37.47
55291;BME280;41155;39.768;2.712;2023-04-07T11:38:55;101495.78;;;22.78;37.50
55291;BME280;41155;39.768;2.712;2023-04-07T11:41:22;101489.00;;;22.85;38.29
55291;BME280;41155;39.768;2.712;2023-04-07T11:44:05;101472.47;;;22.85;38.88
55291;BME280;41155;39.768;2.712;2023-04-07T11:46:31;101479.94;;;23.07;37.37
55291;BME280;41155;39.768;2.712;2023-04-07T11:49:08;101477.50;;;23.14;37.09
55291;BME280;41155;39.768;2.712;2023-04-07T11:51:34;101467.59;;;23.04;37.33
55291;BME280;41155;39.768;2.712;2023-04-07T11:53:59;101482.53;;;23.12;37.45
55291;BME280;41155;39.768;2.712;2023-04-07T11:56:25;101472.34;;;23.12;37.65
55291;BME280;41155;39.768;2.712;2023-04-07T11:58:53;101477.00;;;23.03;38.23
55291;BME280;41155;39.768;2.712;2023-04-07T12:01:19;101467.72;;;22.99;38.22
55291;BME280;41155;39.768;2.712;2023-04-07T12:03:58;101478.66;;;22.90;38.35
55291;BME280;41155;39.768;2.712;2023-04-07T12:06:32;101465.81;;;22.77;38.74
55291;BME280;41155;39.768;2.712;2023-04-07T12:09:08;101455.78;;;22.81;38.14
55291;BME280;41155;39.768;2.712;2023-04-07T12:11:34;101443.28;;;22.75;38.23
55291;BME280;41155;39.768;2.712;2023-04-07T12:14:00;101463.78;;;22.91;38.86
55291;BME280;41155;39.768;2.712;2023-04-07T12:16:29;101470.41;;;22.90;38.80
55291;BME280;41155;39.768;2.712;2023-04-07T12:18:55;101463.34;;;22.98;38.62
55291;BME280;41155;39.768;2.712;2023-04-07T12:21:20;101457.72;;;23.03;38.81
55291;BME280;41155;39.768;2.712;2023-04-07T12:23:46;101426.03;;;22.92;38.26
55291;BME280;41155;39.768;2.712;2023-04-07T12:26:12;101433.00;;;23.20;37.83
55291;BME280;41155;39.768;2.712;2023-04-07T12:28:38;101452.16;;;23.43;37.59
55291;BME280;41155;39.768;2.712;2023-04-07T12:31:03;101444.53;;;23.40;37.98
55291;BME280;41155;39.768;2.712;2023-04-07T12:33:29;101416.13;;;23.22;37.87
55291;BME280;41155;39.768;2.712;2023-04-07T12:35:58;101423.13;;;23.37;37.68
55291;BME280;41155;39.768;2.712;2023-04-07T12:38:24;101437.63;;;23.68;36.87
55291;BME280;41155;39.768;2.712;2023-04-07T12:40:49;101439.25;;;23.69;37.06
55291;BME280;41155;39.768;2.712;2023-04-07T12:43:15;101412.16;;;23.63;36.59
55291;BME280;41155;39.768;2.712;2023-04-07T12:45:41;101429.56;;;23.89;36.61
55291;BME280;41155;39.768;2.712;2023-04-07T12:48:07;101424.69;;;23.95;36.54
55291;BME280;41155;39.768;2.712;2023-04-07T12:50:34;101424.38;;;23.88;36.29
55291;BME280;41155;39.768;2.712;2023-04-07T12:53:00;101418.06;;;23.96;36.11
55291;BME280;41155;39.768;2.712;2023-04-07T12:55:30;101382.22;;;23.87;35.34
55291;BME280;41155;39.768;2.712;2023-04-07T12:57:58;101404.25;;;24.05;35.26
55291;BME280;41155;39.768;2.712;2023-04-07T13:00:23;101403.44;;;24.04;35.19
55291;BME280;41155;39.768;2.712;2023-04-07T13:02:49;101380.25;;;23.88;34.94
55291;BME280;41155;39.768;2.712;2023-04-07T13:05:15;101393.06;;;24.19;34.59
55291;BME280;41155;39.768;2.712;2023-04-07T13:07:40;101385.41;;;24.07;34.48
55291;BME280;41155;39.768;2.712;2023-04-07T13:10:06;101364.50;;;23.97;34.24
55291;BME280;41155;39.768;2.712;2023-04-07T13:12:33;101377.97;;;24.07;34.41
55291;BME280;41155;39.768;2.712;2023-04-07T13:14:59;101389.31;;;24.14;33.89